Time;durP1;ratioP1;P1;durP2;ratioP2;P2;SDS_P1;SDS_P2;PMS_P1;PMS_P2;Temp;Humidity;BMP_temperature;BMP_pressure;BME280_temperature;BME280_humidity;BME280_pressure;Samples;Min_cycle;Max_cycle;Signal;HPM_P1;HPM_P2
2021/03/04 00:00:11;;;;;;;4.28;3.40;;;;;;;19.17;50.61;102542.34;5074716;28;20458;-74
2021/03/04 00:02:36;;;;;;;3.97;3.00;;;;;;;19.23;50.58;102545.06;5057553;28;20133;-74
2021/03/04 00:05:07;;;;;;;5.25;3.38;;;;;;;19.23;50.53;102545.06;5073188;28;20033;-74
2021/03/04 00:07:32;;;;;;;4.82;3.33;;;;;;;19.23;50.55;102542.44;5023791;28;20040;-74
2021/03/04 00:09:58;;;;;;;4.10;3.50;;;;;;;19.23;50.50;102545.94;5069145;28;20031;-74
2021/03/04 00:12:23;;;;;;;4.88;4.00;;;;;;;19.25;50.58;102528.50;5039905;28;20375;-75
2021/03/04 00:14:48;;;;;;;4.47;3.63;;;;;;;19.22;50.25;102515.31;5056564;28;20071;-75
2021/03/04 00:17:14;;;;;;;4.97;3.42;;;;;;;19.23;50.51;102522.34;5056693;28;20035;-74
2021/03/04 00:19:39;;;;;;;4.63;3.35;;;;;;;19.25;50.53;102539.00;5074542;28;20035;-74
2021/03/04 00:22:05;;;;;;;4.25;3.53;;;;;;;19.26;50.40;102530.28;5074027;28;20082;-75
2021/03/04 00:24:30;;;;;;;5.25;2.90;;;;;;;19.24;50.23;102529.34;5075230;28;20017;-75
2021/03/04 00:26:55;;;;;;;4.32;2.90;;;;;;;19.26;50.33;102535.53;5057683;28;20029;-75
2021/03/04 00:29:21;;;;;;;5.68;4.00;;;;;;;19.25;50.23;102539.00;5057032;28;20028;-75
2021/03/04 00:31:47;;;;;;;4.10;2.88;;;;;;;19.28;50.46;102538.19;5038749;28;20052;-74
2021/03/04 00:34:12;;;;;;;3.70;3.10;;;;;;;19.27;50.15;102542.53;5074436;28;20103;-75
2021/03/04 00:36:38;;;;;;;5.25;2.88;;;;;;;19.22;50.42;102519.69;5039858;28;20036;-74
2021/03/04 00:39:08;;;;;;;5.43;3.95;;;;;;;19.28;50.14;102519.81;5055995;28;20083;-75
2021/03/04 00:41:34;;;;;;;3.92;2.80;;;;;;;19.31;50.21;102525.13;5056446;28;20036;-74
2021/03/04 00:44:00;;;;;;;4.82;3.35;;;;;;;19.32;50.32;102529.53;5050021;28;20423;-75
2021/03/04 00:46:26;;;;;;;3.53;2.88;;;;;;;19.33;50.30;102522.53;5054392;28;20037;-75
2021/03/04 00:48:51;;;;;;;3.75;3.05;;;;;;;19.35;50.24;102521.69;5062477;28;20032;-74
2021/03/04 00:51:17;;;;;;;4.60;3.17;;;;;;;19.34;50.25;102516.44;5074079;28;20466;-74
2021/03/04 00:53:42;;;;;;;3.45;2.65;;;;;;;19.26;50.22;102501.44;5072387;28;20037;-74
2021/03/04 00:56:11;;;;;;;5.38;3.28;;;;;;;19.33;50.32;102501.56;5055926;28;20090;-75
2021/03/04 00:58:36;;;;;;;3.45;2.78;;;;;;;19.35;50.04;102500.69;5071830;28;20075;-74
2021/03/04 01:01:04;;;;;;;4.07;3.25;;;;;;;19.33;50.10;102502.44;5056186;28;20474;-74
2021/03/04 01:03:29;;;;;;;3.88;2.58;;;;;;;19.32;50.25;102508.53;5039616;28;20394;-74
2021/03/04 01:05:54;;;;;;;4.28;3.10;;;;;;;19.37;50.17;102513.84;5041641;28;20037;-74
2021/03/04 01:08:19;;;;;;;3.25;2.58;;;;;;;19.34;50.23;102519.94;5066906;28;20040;-74
2021/03/04 01:10:45;;;;;;;4.05;2.70;;;;;;;19.35;50.14;102519.06;5072402;28;20451;-74
2021/03/04 01:13:10;;;;;;;3.17;2.60;;;;;;;19.37;50.09;102503.34;5055611;28;20028;-74
2021/03/04 01:15:36;;;;;;;3.65;2.75;;;;;;;19.35;49.97;102502.44;5055810;28;20039;-74
2021/03/04 01:18:03;;;;;;;2.80;2.40;;;;;;;19.37;50.06;102524.34;5055728;28;20033;-74
2021/03/04 01:20:29;;;;;;;3.13;2.30;;;;;;;19.34;50.04;102521.69;5073221;28;20037;-74
2021/03/04 01:22:55;;;;;;;3.55;2.90;;;;;;;19.33;50.10;102510.31;5037764;28;20122;-74
2021/03/04 01:25:21;;;;;;;3.85;2.90;;;;;;;19.36;49.97;102507.72;5055223;28;20016;-74
2021/03/04 01:27:51;;;;;;;3.30;2.60;;;;;;;19.37;50.04;102506.84;5038856;28;20025;-74
2021/03/04 01:30:17;;;;;;;3.72;2.60;;;;;;;19.38;49.89;102503.38;5064727;28;20048;-74
2021/03/04 01:32:43;;;;;;;3.67;2.35;;;;;;;19.32;50.10;102487.53;5038574;28;20028;-74
2021/03/04 01:35:09;;;;;;;3.13;2.47;;;;;;;19.34;49.95;102488.47;5055181;28;20047;-74
2021/03/04 01:37:36;;;;;;;2.72;2.50;;;;;;;19.36;49.92;102488.47;5055451;28;20044;-74
2021/03/04 01:40:09;;;;;;;4.65;3.15;;;;;;;19.42;50.01;102499.06;5072583;28;20506;-74
2021/03/04 01:42:35;;;;;;;4.05;2.92;;;;;;;19.42;49.98;102493.81;5046352;28;20394;-74
2021/03/04 01:45:00;;;;;;;2.90;2.40;;;;;;;19.40;50.05;102488.56;5069453;28;20020;-73
2021/03/04 01:47:26;;;;;;;3.35;2.67;;;;;;;19.42;49.92;102478.97;5072271;28;20028;-73
2021/03/04 01:49:52;;;;;;;3.72;2.90;;;;;;;19.43;49.91;102477.22;5055022;28;20037;-73
2021/03/04 01:52:18;;;;;;;2.90;2.40;;;;;;;19.40;49.79;102471.94;5055198;28;20025;-73
2021/03/04 01:54:43;;;;;;;4.15;2.60;;;;;;;19.34;50.00;102467.47;5034400;28;20033;-73
2021/03/04 01:57:12;;;;;;;3.42;3.13;;;;;;;19.46;49.94;102470.31;5045831;28;20486;-73
2021/03/04 01:59:38;;;;;;;3.88;2.45;;;;;;;19.42;49.94;102465.84;5055048;28;20077;-73
2021/03/04 02:02:04;;;;;;;2.92;2.30;;;;;;;19.40;49.96;102456.19;5072856;28;20032;-73
2021/03/04 02:04:29;;;;;;;3.55;2.78;;;;;;;19.41;49.84;102448.34;5021789;28;20028;-73
2021/03/04 02:07:04;;;;;;;3.47;2.83;;;;;;;19.43;49.85;102457.13;5071708;28;20082;-73
2021/03/04 02:09:33;;;;;;;2.88;2.03;;;;;;;19.41;49.73;102453.59;5054135;28;20021;-73
2021/03/04 02:12:05;;;;;;;3.20;2.90;;;;;;;19.48;49.86;102441.44;5054267;28;20037;-73
2021/03/04 02:14:36;;;;;;;3.72;2.70;;;;;;;19.43;49.97;102430.00;5072408;28;20032;-73
2021/03/04 02:17:06;;;;;;;3.13;2.50;;;;;;;19.38;49.88;102431.66;5054864;28;20028;-73
2021/03/04 02:19:37;;;;;;;3.45;2.88;;;;;;;19.47;49.71;102448.47;5071355;28;20483;-73
2021/03/04 02:22:22;;;;;;;3.22;2.10;;;;;;;19.47;50.09;102440.59;5056860;28;20106;-73
2021/03/04 02:25:06;;;;;;;3.03;2.30;;;;;;;19.45;49.91;102444.03;5072904;28;20021;-74
2021/03/04 02:27:35;;;;;;;2.92;2.50;;;;;;;19.43;49.98;102437.88;5054945;28;20421;-73
2021/03/04 02:30:05;;;;;;;4.25;2.72;;;;;;;19.50;49.79;102439.75;5071821;28;20386;-74
2021/03/04 02:32:33;;;;;;;3.00;2.25;;;;;;;19.45;50.04;102434.44;5071593;28;20028;-74
2021/03/04 02:35:26;;;;;;;3.80;2.47;;;;;;;19.48;49.77;102431.84;5038218;28;20028;-73
2021/03/04 02:38:02;;;;;;;2.83;2.20;;;;;;;19.50;49.93;102435.41;5072529;28;20028;-73
2021/03/04 02:40:30;;;;;;;2.92;2.40;;;;;;;19.45;50.00;102428.31;5051922;28;20025;-73
2021/03/04 02:42:57;;;;;;;2.65;2.00;;;;;;;19.48;49.81;102431.84;5054517;28;20113;-74
2021/03/04 02:45:25;;;;;;;3.05;2.47;;;;;;;19.46;49.83;102409.97;5069171;28;20035;-74
2021/03/04 02:47:51;;;;;;;3.03;2.47;;;;;;;19.49;49.92;102410.03;5053894;28;20033;-73
2021/03/04 02:50:17;;;;;;;2.90;2.33;;;;;;;19.51;49.87;102404.81;5072482;28;20036;-73
2021/03/04 02:52:43;;;;;;;2.85;2.20;;;;;;;19.45;50.05;102395.06;5072552;28;20033;-73
2021/03/04 02:55:09;;;;;;;2.97;2.45;;;;;;;19.43;49.99;102388.91;5037727;28;20054;-73
2021/03/04 02:57:39;;;;;;;2.60;2.05;;;;;;;19.43;50.07;102377.53;5054153;28;20529;-73
2021/03/04 03:00:09;;;;;;;3.90;2.72;;;;;;;19.41;50.06;102369.66;5074609;28;20535;-73
2021/03/04 03:02:36;;;;;;;3.95;2.30;;;;;;;19.38;50.04;102373.94;5068167;28;20037;-73
2021/03/04 03:05:08;;;;;;;2.80;2.38;;;;;;;19.38;50.32;102374.84;5075675;28;20028;-73
2021/03/04 03:07:37;;;;;;;3.33;2.70;;;;;;;19.34;50.21;102372.16;5072085;28;20032;-73
2021/03/04 03:10:04;;;;;;;2.85;2.40;;;;;;;19.37;50.22;102375.69;5056275;28;20029;-73
2021/03/04 03:12:31;;;;;;;3.88;2.58;;;;;;;19.35;50.33;102366.03;5074518;28;20520;-74
2021/03/04 03:14:58;;;;;;;2.85;2.25;;;;;;;19.26;50.46;102351.91;5075996;28;20041;-73
2021/03/04 03:17:23;;;;;;;3.75;3.10;;;;;;;19.32;50.17;102372.13;5057071;28;20036;-73
2021/03/04 03:19:49;;;;;;;3.67;2.35;;;;;;;19.27;50.12;102361.56;5057574;28;20029;-73
2021/03/04 03:22:14;;;;;;;4.10;3.10;;;;;;;19.27;50.29;102358.94;5040125;28;20039;-73
2021/03/04 03:24:39;;;;;;;3.00;2.45;;;;;;;19.25;49.98;102352.78;5041131;28;20032;-73
2021/03/04 03:27:06;;;;;;;2.97;2.25;;;;;;;19.27;50.17;102358.94;5074282;28;20036;-73
2021/03/04 03:29:31;;;;;;;3.33;2.83;;;;;;;19.20;50.28;102343.97;5056427;28;20048;-73
2021/03/04 03:31:58;;;;;;;2.72;2.38;;;;;;;19.20;50.30;102349.22;5056769;28;20115;-73
2021/03/04 03:34:24;;;;;;;3.67;3.00;;;;;;;19.22;50.33;102346.59;5041177;28;20037;-73
2021/03/04 03:36:50;;;;;;;3.72;3.03;;;;;;;19.21;50.20;102350.94;5057282;28;20428;-74
2021/03/04 03:39:16;;;;;;;4.47;2.80;;;;;;;19.17;50.36;102337.78;5074979;28;20132;-73
2021/03/04 03:41:42;;;;;;;3.28;2.38;;;;;;;19.17;50.16;102329.91;5057216;28;20055;-73
2021/03/04 03:44:10;;;;;;;4.00;2.80;;;;;;;19.15;50.53;102334.25;5057299;28;20040;-73
2021/03/04 03:46:37;;;;;;;3.00;2.50;;;;;;;19.16;50.23;102331.66;5057528;28;20024;-73
2021/03/04 03:49:04;;;;;;;3.92;2.88;;;;;;;19.12;50.36;102326.31;5057364;28;20036;-74
2021/03/04 03:51:32;;;;;;;2.90;2.60;;;;;;;19.10;50.24;102330.66;5073283;28;20021;-73
2021/03/04 03:54:00;;;;;;;3.85;2.95;;;;;;;19.16;50.27;102341.25;5057090;28;20036;-73
2021/03/04 03:56:27;;;;;;;4.15;3.28;;;;;;;19.15;50.27;102352.59;5040660;28;20055;-73
2021/03/04 03:58:52;;;;;;;4.93;3.10;;;;;;;19.13;50.37;102349.97;5075063;28;20115;-73
2021/03/04 04:01:19;;;;;;;4.75;2.80;;;;;;;19.14;50.30;102346.47;5075426;28;20473;-74
2021/03/04 04:03:44;;;;;;;3.47;2.83;;;;;;;19.14;50.31;102343.84;5074720;28;20028;-74
2021/03/04 04:06:09;;;;;;;3.85;3.38;;;;;;;19.11;50.16;102345.53;5074935;28;20149;-74
2021/03/04 04:08:35;;;;;;;3.35;2.70;;;;;;;19.11;50.44;102341.19;5040047;28;20032;-74
2021/03/04 04:11:02;;;;;;;4.80;4.03;;;;;;;19.10;50.38;102331.53;5074442;28;20029;-74
2021/03/04 04:13:27;;;;;;;3.97;3.05;;;;;;;19.07;50.16;102335.88;5074600;28;20025;-74
2021/03/04 04:15:52;;;;;;;4.22;2.75;;;;;;;19.09;50.22;102327.16;5057214;28;20051;-74
2021/03/04 04:18:19;;;;;;;3.97;3.03;;;;;;;19.05;50.00;102328.00;5040159;28;20123;-74
2021/03/04 04:20:45;;;;;;;6.15;3.65;;;;;;;18.99;50.21;102316.50;5056782;28;20471;-74
2021/03/04 04:23:11;;;;;;;4.03;2.83;;;;;;;19.05;50.28;102321.88;5039865;28;20038;-74
2021/03/04 04:25:46;;;;;;;3.45;2.35;;;;;;;19.02;50.30;102317.44;5056524;28;20109;-74
2021/03/04 04:28:11;;;;;;;3.38;2.50;;;;;;;19.02;50.27;102306.06;5073038;28;20056;-74
2021/03/04 04:30:37;;;;;;;3.72;2.63;;;;;;;19.07;50.30;102318.41;5040035;28;20505;-74
2021/03/04 04:33:02;;;;;;;4.10;3.30;;;;;;;19.03;50.17;102318.31;5074353;28;20508;-74
2021/03/04 04:35:27;;;;;;;4.18;3.10;;;;;;;19.06;50.25;102324.50;5056368;28;20509;-74
2021/03/04 04:37:53;;;;;;;4.47;3.08;;;;;;;19.03;50.34;102319.22;5074189;28;20038;-74
2021/03/04 04:40:18;;;;;;;4.15;3.38;;;;;;;19.02;50.18;102322.69;5056164;28;20048;-74
2021/03/04 04:42:43;;;;;;;3.70;2.83;;;;;;;19.07;50.20;102326.28;5074021;28;20074;-74
2021/03/04 04:45:09;;;;;;;4.80;3.47;;;;;;;19.11;49.84;102335.94;5071492;28;20131;-74
2021/03/04 04:47:35;;;;;;;3.72;2.95;;;;;;;19.14;49.95;102332.50;5073776;28;20448;-74
2021/03/04 04:50:02;;;;;;;5.53;3.17;;;;;;;19.13;49.95;102331.59;5061818;28;20036;-74
2021/03/04 04:52:27;;;;;;;3.72;2.63;;;;;;;19.16;50.02;102330.78;5073727;28;20025;-74
2021/03/04 04:54:53;;;;;;;4.07;3.38;;;;;;;19.17;50.00;102320.31;5022717;28;20144;-74
2021/03/04 04:57:18;;;;;;;4.38;2.85;;;;;;;19.22;49.95;102321.25;5039762;28;20028;-74
2021/03/04 04:59:45;;;;;;;3.70;2.88;;;;;;;19.22;50.05;102317.75;5073917;28;20054;-74
2021/03/04 05:02:10;;;;;;;4.10;2.55;;;;;;;19.19;49.94;102302.88;5072974;28;20386;-74
2021/03/04 05:04:36;;;;;;;3.60;3.00;;;;;;;19.27;49.82;102298.59;5039596;28;20036;-75
2021/03/04 05:07:01;;;;;;;3.67;3.00;;;;;;;19.27;49.74;102305.59;5073755;28;20426;-74
2021/03/04 05:09:26;;;;;;;3.72;2.95;;;;;;;19.27;49.84;102308.22;5074043;28;20553;-74
2021/03/04 05:11:52;;;;;;;4.07;2.78;;;;;;;19.31;49.63;102307.41;5055610;28;20032;-74
2021/03/04 05:14:17;;;;;;;3.80;3.45;;;;;;;19.28;49.59;102296.88;5073527;28;20060;-74
2021/03/04 05:16:42;;;;;;;3.60;2.95;;;;;;;19.30;49.82;102303.03;5039202;28;20119;-74
2021/03/04 05:19:08;;;;;;;4.00;3.05;;;;;;;19.31;49.74;102304.78;5073438;28;20032;-74
2021/03/04 05:21:34;;;;;;;3.75;2.88;;;;;;;19.33;49.75;102308.31;5038133;28;20025;-74
2021/03/04 05:23:59;;;;;;;3.42;2.92;;;;;;;19.31;49.75;102311.78;5055633;28;20023;-74
2021/03/04 05:26:25;;;;;;;3.85;2.60;;;;;;;19.34;49.86;102312.72;5055751;28;20070;-75
2021/03/04 05:28:50;;;;;;;3.25;2.33;;;;;;;19.33;49.73;102313.56;5073166;28;20089;-74
2021/03/04 05:31:15;;;;;;;3.72;2.97;;;;;;;19.36;49.79;102310.09;5071490;28;20115;-74
2021/03/04 05:33:41;;;;;;;3.42;2.70;;;;;;;19.36;49.76;102310.97;5072993;28;20474;-74
2021/03/04 05:36:07;;;;;;;3.63;2.67;;;;;;;19.34;49.65;102304.84;5073062;28;20379;-76
2021/03/04 05:38:32;;;;;;;4.22;3.22;;;;;;;19.26;49.70;102277.59;5073242;28;20056;-74
2021/03/04 05:40:57;;;;;;;3.60;2.67;;;;;;;19.34;49.82;102299.59;5073110;28;20055;-74
2021/03/04 05:43:23;;;;;;;3.95;3.55;;;;;;;19.29;49.91;102277.66;5055568;28;20043;-74
2021/03/04 05:45:49;;;;;;;5.22;2.85;;;;;;;19.41;49.70;102306.69;5055141;28;20383;-74
2021/03/04 05:48:19;;;;;;;2.85;2.20;;;;;;;19.38;49.58;102290.00;5073118;28;20028;-74
2021/03/04 05:50:49;;;;;;;4.57;2.97;;;;;;;19.35;49.69;102290.84;5055047;28;20020;-74
2021/03/04 05:53:17;;;;;;;4.18;3.15;;;;;;;19.37;49.69;102296.09;5055202;28;20020;-74
2021/03/04 05:55:46;;;;;;;4.18;3.13;;;;;;;19.42;49.68;102295.34;5055264;28;20036;-74
2021/03/04 05:58:12;;;;;;;4.72;3.03;;;;;;;19.39;49.70;102289.16;5054981;28;20110;-74
2021/03/04 06:00:40;;;;;;;3.13;2.30;;;;;;;19.38;49.84;102287.38;5038556;28;20035;-74
2021/03/04 06:03:06;;;;;;;3.97;3.03;;;;;;;19.44;49.60;102290.09;5054930;28;20036;-73
2021/03/04 06:05:32;;;;;;;3.75;2.40;;;;;;;19.44;49.34;102280.50;5071538;28;20070;-73
2021/03/04 06:07:57;;;;;;;5.22;2.47;;;;;;;19.47;49.80;102282.28;5071036;28;20056;-73
2021/03/04 06:10:23;;;;;;;4.88;2.70;;;;;;;19.49;49.50;102270.97;5038286;28;20040;-72
2021/03/04 06:12:48;;;;;;;3.55;2.53;;;;;;;19.53;49.39;102270.16;5069261;28;20112;-72
2021/03/04 06:15:14;;;;;;;3.60;2.53;;;;;;;19.58;49.32;102280.72;5037887;28;20029;-72
2021/03/04 06:17:39;;;;;;;4.00;3.08;;;;;;;19.59;49.38;102274.63;5055419;28;20056;-76
2021/03/04 06:20:07;;;;;;;3.75;2.38;;;;;;;19.61;49.40;102279.00;5052623;28;20033;-75
2021/03/04 06:22:37;;;;;;;8.40;4.80;;;;;;;19.69;49.37;102270.34;5037712;28;20017;-74
2021/03/04 06:25:11;;;;;;;4.47;2.80;;;;;;;19.66;49.37;102280.81;5054148;28;20024;-73
2021/03/04 06:27:39;;;;;;;4.50;3.53;;;;;;;19.57;49.46;102273.72;5053007;28;20040;-76
2021/03/04 06:30:12;;;;;;;10.30;5.10;;;;;;;19.57;49.62;102276.34;5054448;28;20069;-76
2021/03/04 06:32:53;;;;;;;9.52;4.00;;;;;;;19.46;49.77;102263.03;5046885;28;20040;-76
2021/03/04 06:35:19;;;;;;;7.32;4.47;;;;;;;19.51;49.82;102279.75;5073819;28;20421;-76
2021/03/04 06:37:45;;;;;;;7.00;4.18;;;;;;;19.51;49.98;102277.13;5074706;28;20029;-76
2021/03/04 06:40:25;;;;;;;6.90;4.18;;;;;;;19.47;49.77;102280.53;5052577;28;20045;-74
2021/03/04 06:42:51;;;;;;;7.38;4.80;;;;;;;19.55;50.10;102280.66;5055832;28;20052;-73
2021/03/04 06:45:29;;;;;;;6.32;4.53;;;;;;;19.59;49.99;102285.13;5042323;28;20062;-72
2021/03/04 06:48:13;;;;;;;10.43;4.88;;;;;;;19.59;49.80;102283.38;5068891;28;20025;-73
2021/03/04 06:50:41;;;;;;;10.68;4.78;;;;;;;19.62;50.01;102283.38;5075483;28;20024;-73
2021/03/04 06:53:25;;;;;;;7.30;4.28;;;;;;;19.65;50.02;102279.91;5076111;28;20111;-73
2021/03/04 06:56:04;;;;;;;8.02;4.60;;;;;;;19.54;49.75;102266.66;5074345;28;20043;-74
2021/03/04 06:58:41;;;;;;;9.07;4.53;;;;;;;19.68;49.94;102282.59;5054526;28;20036;-73
2021/03/04 07:01:16;;;;;;;7.20;4.47;;;;;;;19.70;49.92;102283.50;5076385;28;20072;-73
2021/03/04 07:03:47;;;;;;;8.80;4.28;;;;;;;19.62;49.91;102261.50;5075827;28;20025;-73
2021/03/04 07:06:18;;;;;;;5.60;4.28;;;;;;;19.71;50.02;102287.91;5057914;28;20056;-72
2021/03/04 07:08:46;;;;;;;8.15;4.15;;;;;;;19.75;49.96;102292.28;5054777;28;20043;-73
2021/03/04 07:11:14;;;;;;;7.43;4.43;;;;;;;19.74;50.19;102293.16;5058675;28;20024;-73
2021/03/04 07:13:41;;;;;;;7.28;3.97;;;;;;;19.65;49.74;102289.53;5072636;28;20081;-74
2021/03/04 07:16:16;;;;;;;7.38;4.50;;;;;;;19.62;49.98;102287.75;5073887;28;20032;-73
2021/03/04 07:18:47;;;;;;;4.82;3.88;;;;;;;19.61;50.09;102300.00;5075830;28;20043;-73
2021/03/04 07:21:17;;;;;;;5.53;3.95;;;;;;;19.58;50.14;102296.47;5057836;28;20032;-74
2021/03/04 07:23:44;;;;;;;7.50;4.50;;;;;;;19.54;50.23;102292.91;5057724;28;20170;-73
2021/03/04 07:26:11;;;;;;;10.18;4.35;;;;;;;19.48;50.07;102295.41;5055174;28;20052;-73
2021/03/04 07:28:38;;;;;;;5.35;3.83;;;;;;;19.46;50.35;102294.53;5061418;28;20323;-73
2021/03/04 07:31:05;;;;;;;7.00;5.03;;;;;;;19.44;50.38;102297.97;5041415;28;20016;-73
2021/03/04 07:33:32;;;;;;;5.43;3.70;;;;;;;19.46;50.22;102302.41;5056185;28;20039;-73
2021/03/04 07:36:01;;;;;;;6.53;4.28;;;;;;;19.44;50.16;102303.22;5074531;28;20032;-73
2021/03/04 07:38:28;;;;;;;5.95;3.83;;;;;;;19.47;50.26;102312.03;5074745;28;20044;-73
2021/03/04 07:41:08;;;;;;;7.97;4.53;;;;;;;19.41;50.30;102298.81;5069458;28;20016;-74
2021/03/04 07:43:57;;;;;;;5.20;4.00;;;;;;;19.41;50.19;102308.41;5071433;28;20024;-74
2021/03/04 07:46:42;;;;;;;8.65;4.28;;;;;;;19.43;50.19;102312.84;5053123;28;20056;-73
2021/03/04 07:49:08;;;;;;;6.53;4.20;;;;;;;19.41;50.32;102313.66;5073124;28;20089;-73
2021/03/04 07:51:48;;;;;;;6.03;4.05;;;;;;;19.40;50.22;102312.78;5057376;28;20033;-73
2021/03/04 07:54:15;;;;;;;10.90;4.93;;;;;;;19.46;50.41;102315.50;5055544;28;20036;-74
2021/03/04 07:56:41;;;;;;;8.13;4.65;;;;;;;19.56;50.04;102308.69;5075059;28;20042;-72
2021/03/04 07:59:09;;;;;;;7.65;4.28;;;;;;;19.49;50.43;102298.94;5074989;28;20024;-74
2021/03/04 08:01:34;;;;;;;11.70;4.95;;;;;;;19.54;50.98;102305.16;5056092;28;20044;-74
2021/03/04 08:04:01;;;;;;;14.35;5.55;;;;;;;19.52;50.73;102310.38;5038809;28;20033;-72
2021/03/04 08:06:27;;;;;;;9.82;5.32;;;;;;;19.46;51.22;102299.78;5074666;28;20036;-73
2021/03/04 08:08:52;;;;;;;8.73;5.38;;;;;;;19.37;51.42;102289.13;5073607;28;20025;-73
2021/03/04 08:11:28;;;;;;;11.65;4.93;;;;;;;19.40;51.47;102290.91;5023324;28;20508;-73
2021/03/04 08:13:54;;;;;;;6.60;5.13;;;;;;;19.42;51.43;102308.44;5076516;28;20119;-73
2021/03/04 08:16:20;;;;;;;6.15;4.07;;;;;;;19.40;51.47;102307.53;5073055;28;20119;-73
2021/03/04 08:18:58;;;;;;;9.93;4.45;;;;;;;19.35;51.62;102296.09;5062696;28;20040;-73
2021/03/04 08:21:24;;;;;;;7.18;4.07;;;;;;;19.39;51.81;102304.88;5057183;28;20089;-73
2021/03/04 08:23:51;;;;;;;8.20;4.45;;;;;;;19.35;51.56;102293.47;5054482;28;20012;-75
2021/03/04 08:26:28;;;;;;;10.90;4.80;;;;;;;19.31;51.37;102290.78;5069813;28;20093;-74
2021/03/04 08:29:04;;;;;;;6.22;4.03;;;;;;;19.33;51.41;102295.22;5072132;28;20093;-74
2021/03/04 08:31:31;;;;;;;6.43;3.85;;;;;;;19.25;51.50;102279.34;5037237;28;20109;-73
2021/03/04 08:33:57;;;;;;;7.97;5.05;;;;;;;19.31;51.44;102293.41;5073969;28;20028;-73
2021/03/04 08:36:22;;;;;;;6.80;4.70;;;;;;;19.31;51.36;102296.03;5064449;28;20028;-73
2021/03/04 08:38:48;;;;;;;8.80;4.25;;;;;;;19.31;51.38;102302.16;5068302;28;20553;-73
2021/03/04 08:41:21;;;;;;;8.65;4.53;;;;;;;19.25;51.10;102291.56;5073508;28;20117;-73
2021/03/04 08:43:46;;;;;;;7.43;3.67;;;;;;;19.30;51.36;102299.53;5072585;28;20111;-73
2021/03/04 08:46:11;;;;;;;7.20;4.38;;;;;;;19.22;50.97;102291.50;5053190;28;20124;-73
2021/03/04 08:48:46;;;;;;;8.70;5.00;;;;;;;19.25;50.74;102299.44;5043163;28;20501;-73
2021/03/04 08:51:13;;;;;;;11.75;5.10;;;;;;;19.23;50.82;102301.16;5056039;28;20371;-75
2021/03/04 08:53:38;;;;;;;7.35;5.13;;;;;;;19.30;50.96;102296.91;5073627;28;20107;-74
2021/03/04 08:56:08;;;;;;;6.55;4.60;;;;;;;19.26;50.87;102291.59;5051324;28;20111;-73
2021/03/04 08:58:42;;;;;;;6.38;4.60;;;;;;;19.28;51.04;102294.25;5054662;28;20116;-73
2021/03/04 09:01:07;;;;;;;7.78;4.55;;;;;;;19.34;50.91;102293.47;5072056;28;20029;-73
2021/03/04 09:03:41;;;;;;;9.18;3.65;;;;;;;19.49;50.89;102283.19;5073772;28;20083;-72
2021/03/04 09:06:08;;;;;;;8.55;3.97;;;;;;;19.69;50.40;102284.38;5032779;28;20032;-77
2021/03/04 09:08:38;;;;;;;9.05;6.60;;;;;;;19.62;48.26;102288.63;5070103;28;20036;-76
2021/03/04 09:11:05;;;;;;;9.13;4.68;;;;;;;19.62;48.66;102287.75;5073164;28;20492;-74
2021/03/04 09:13:31;;;;;;;6.20;3.63;;;;;;;20.00;48.21;102288.22;5072958;28;20074;-74
2021/03/04 09:16:03;;;;;;;9.13;3.88;;;;;;;20.17;48.17;102296.31;5054367;28;20060;-75
2021/03/04 09:18:29;;;;;;;5.50;3.38;;;;;;;20.16;48.69;102291.91;5071147;28;20082;-75
2021/03/04 09:20:55;;;;;;;6.43;3.13;;;;;;;20.14;48.83;102281.38;5020763;28;20033;-74
2021/03/04 09:23:24;;;;;;;3.58;2.40;;;;;;;20.17;49.37;102296.31;5054882;28;20032;-74
2021/03/04 09:25:54;;;;;;;5.22;2.83;;;;;;;20.01;49.47;102279.47;5053786;28;20016;-79
2021/03/04 09:28:20;;;;;;;4.20;2.83;;;;;;;19.91;49.93;102280.25;5070419;28;20077;-72
2021/03/04 09:30:47;;;;;;;5.00;2.83;;;;;;;19.83;51.06;102280.16;5055631;28;20031;-72
2021/03/04 09:33:24;;;;;;;5.57;2.83;;;;;;;19.81;51.40;102291.50;5077188;28;20028;-74
2021/03/04 09:36:00;;;;;;;4.13;3.03;;;;;;;19.71;51.60;102280.03;5071697;28;20029;-73
2021/03/04 09:38:27;;;;;;;5.25;3.20;;;;;;;19.68;51.89;102276.47;5035745;28;20050;-73
2021/03/04 09:40:54;;;;;;;7.80;2.67;;;;;;;19.69;51.99;102286.97;5054841;28;20062;-73
2021/03/04 09:43:22;;;;;;;4.50;2.25;;;;;;;19.61;51.90;102284.25;5058305;28;20026;-74
2021/03/04 09:45:49;;;;;;;4.68;2.85;;;;;;;19.64;51.98;102280.78;5037174;28;20028;-73
2021/03/04 09:48:15;;;;;;;4.13;2.28;;;;;;;19.56;51.89;102275.44;5053997;28;20432;-73
2021/03/04 09:50:53;;;;;;;3.78;2.85;;;;;;;19.53;51.78;102278.03;5040398;28;20024;-73
2021/03/04 09:53:19;;;;;;;5.53;2.67;;;;;;;19.51;51.72;102269.25;5071495;28;20020;-73
2021/03/04 09:55:46;;;;;;;3.60;2.63;;;;;;;19.56;51.79;102278.06;5074023;28;20029;-74
2021/03/04 09:58:16;;;;;;;4.72;2.60;;;;;;;19.51;51.75;102273.59;5075483;28;20032;-76
2021/03/04 10:00:43;;;;;;;2.72;2.25;;;;;;;19.54;51.48;102276.28;5054040;28;20027;-75
2021/03/04 10:03:13;;;;;;;4.60;2.53;;;;;;;19.50;51.54;102275.34;5073766;28;20035;-75
2021/03/04 10:05:49;;;;;;;4.88;2.60;;;;;;;19.49;51.54;102281.44;5055852;28;20031;-76
2021/03/04 10:08:16;;;;;;;4.00;2.60;;;;;;;19.45;51.67;102271.78;5069871;28;20028;-76
2021/03/04 10:10:43;;;;;;;5.15;2.47;;;;;;;19.47;51.56;102280.53;5061377;28;20020;-76
2021/03/04 10:13:08;;;;;;;4.93;2.35;;;;;;;19.42;51.28;102271.72;5054491;28;20039;-75
2021/03/04 10:15:35;;;;;;;3.70;2.28;;;;;;;19.46;51.40;102283.16;5046093;28;20033;-76
2021/03/04 10:18:05;;;;;;;3.00;2.00;;;;;;;19.44;51.50;102290.09;5071110;28;20035;-76
2021/03/04 10:20:31;;;;;;;3.38;2.60;;;;;;;19.37;51.47;102272.50;5066633;28;20029;-76
2021/03/04 10:22:56;;;;;;;2.67;2.00;;;;;;;19.44;51.32;102284.88;5054345;28;20032;-75
2021/03/04 10:25:22;;;;;;;4.85;2.17;;;;;;;19.40;51.51;102275.19;5035985;28;20021;-76
2021/03/04 10:27:48;;;;;;;4.15;2.63;;;;;;;19.39;51.13;102279.53;5046942;28;20029;-76
2021/03/04 10:30:15;;;;;;;3.90;2.40;;;;;;;19.41;51.27;102280.44;5060141;28;20063;-76
2021/03/04 10:32:41;;;;;;;3.17;2.33;;;;;;;19.42;51.21;102281.31;5054001;28;20028;-76
2021/03/04 10:35:08;;;;;;;3.22;2.03;;;;;;;19.37;51.15;102277.75;5035984;28;20033;-76
2021/03/04 10:37:34;;;;;;;2.88;2.30;;;;;;;19.40;51.19;102278.69;5053552;28;20113;-76
2021/03/04 10:40:00;;;;;;;3.17;2.40;;;;;;;19.41;51.27;102288.31;5056987;28;20443;-74
2021/03/04 10:42:25;;;;;;;4.35;2.35;;;;;;;19.38;51.25;102280.41;5030690;28;20036;-70
2021/03/04 10:44:54;;;;;;;3.85;2.38;;;;;;;19.41;50.93;102284.81;5051229;28;20112;-73
2021/03/04 10:47:19;;;;;;;4.50;2.60;;;;;;;19.42;51.30;102282.22;5073342;28;20065;-73
2021/03/04 10:49:45;;;;;;;4.10;2.22;;;;;;;19.33;51.25;102271.59;5053663;28;20025;-73
2021/03/04 10:52:10;;;;;;;3.22;2.15;;;;;;;19.36;51.30;102284.72;5071594;28;20037;-74
2021/03/04 10:54:35;;;;;;;7.70;2.40;;;;;;;19.42;51.36;102282.22;5053686;28;20385;-72
2021/03/04 10:57:01;;;;;;;5.85;2.63;;;;;;;19.43;51.37;102288.34;5023247;28;20033;-72
2021/03/04 10:59:26;;;;;;;8.88;3.47;;;;;;;19.57;51.25;102289.44;5053947;28;20039;-73
2021/03/04 11:01:51;;;;;;;5.00;2.65;;;;;;;19.98;50.34;102289.97;5051494;28;20098;-74
2021/03/04 11:04:17;;;;;;;4.78;1.77;;;;;;;20.33;49.47;102285.09;5051886;28;20029;-73
2021/03/04 11:06:42;;;;;;;6.07;2.10;;;;;;;20.64;48.92;102292.44;5053816;28;20038;-73
2021/03/04 11:09:07;;;;;;;5.90;2.05;;;;;;;20.53;49.33;102295.81;5030417;28;20026;-73
2021/03/04 11:11:33;;;;;;;5.57;2.30;;;;;;;20.55;49.41;102297.63;5067916;28;20039;-74
2021/03/04 11:13:59;;;;;;;5.85;2.00;;;;;;;20.40;49.49;102297.47;5053037;28;20029;-73
2021/03/04 11:16:24;;;;;;;7.22;1.80;;;;;;;20.15;50.26;102293.66;5037160;28;20039;-71
2021/03/04 11:18:49;;;;;;;4.00;1.55;;;;;;;20.06;50.41;102298.81;5033610;28;20029;-73
2021/03/04 11:21:15;;;;;;;3.58;1.98;;;;;;;20.01;50.35;102295.25;5049510;28;20462;-73
2021/03/04 11:23:40;;;;;;;2.53;1.67;;;;;;;19.96;50.61;102297.84;5026748;28;20028;-74
2021/03/04 11:26:05;;;;;;;3.95;1.42;;;;;;;19.90;50.73;102302.13;5071753;28;20039;-74